Bethany, West Virginia
Current Conditions -  °F | °C
As of 12:18 PM on Wednesday 26 Nov 2014 (Local Time) from KHLG Reporting Station
Light Snow Light Snow  
Wind Chill: 31°   Ceiling: 1900
Heat Index: 31°   Visibility: 1mi
Dew Point: 29°   Wind: 3mph
Humidity: 92%   Direction: 20°NNE
Pressure: 30.03"   Gusts: NA
Location:  40.21°N, 80.56°W
Report Text: KHLG 261718Z 02003KT 1SM R03/P6000FT -SN BR SCT004 OVC019 M01/M02 A3003 RMK AO2 P0001 T10061017
Loading
Personal Weather Stations






























Interactive Weather Map New forecast layout! Learn more

10-Day Weather Forecast

Advertisements
Track Severe Weather on mobile